Time;durP1;ratioP1;P1;durP2;ratioP2;P2;SDS_P1;SDS_P2;PMS_P1;PMS_P2;Temp;Humidity;BMP_temperature;BMP_pressure;BME280_temperature;BME280_humidity;BME280_pressure;Samples;Min_cycle;Max_cycle;Signal;HPM_P1;HPM_P2
2022/05/15 00:02:38;;;;;;;24.15;9.27;;;;;;;13.55;66.68;101963.06;5070964;28;20036;-70
2022/05/15 00:05:04;;;;;;;23.63;8.85;;;;;;;13.55;66.72;101961.31;5071286;28;20040;-70
2022/05/15 00:07:30;;;;;;;28.15;9.77;;;;;;;13.52;66.69;101955.25;5070289;28;20469;-70
2022/05/15 00:09:55;;;;;;;20.52;8.43;;;;;;;13.44;66.78;101952.78;5089383;28;20029;-70
2022/05/15 00:12:20;;;;;;;23.85;9.45;;;;;;;13.38;67.07;101963.38;5091318;28;20032;-70
2022/05/15 00:14:47;;;;;;;28.02;8.95;;;;;;;13.39;67.16;101966.84;5094246;28;20463;-70
2022/05/15 00:17:12;;;;;;;20.58;8.80;;;;;;;13.35;66.89;101959.03;5095009;28;20020;-70
2022/05/15 00:19:38;;;;;;;20.35;9.07;;;;;;;13.30;67.10;101954.75;5077161;28;20043;-70
2022/05/15 00:22:03;;;;;;;21.75;8.93;;;;;;;13.29;67.41;101955.66;5073712;28;20491;-70
2022/05/15 00:24:29;;;;;;;21.98;8.52;;;;;;;13.24;67.66;101954.84;5074089;28;20469;-70
2022/05/15 00:26:55;;;;;;;23.35;8.18;;;;;;;13.21;68.12;101947.91;5083896;28;20036;-70
2022/05/15 00:29:21;;;;;;;23.48;9.02;;;;;;;13.16;67.28;101954.13;5087247;28;20107;-70
2022/05/15 00:31:46;;;;;;;22.83;9.60;;;;;;;13.11;68.50;101939.34;5094295;28;20173;-70
2022/05/15 00:34:11;;;;;;;22.52;8.88;;;;;;;13.08;68.19;101946.41;5073276;28;20039;-70
2022/05/15 00:36:37;;;;;;;20.23;8.77;;;;;;;13.09;68.64;101950.72;5074454;28;20027;-70
2022/05/15 00:39:04;;;;;;;27.15;9.90;;;;;;;13.10;67.92;101942.84;5084893;28;20038;-70
2022/05/15 00:41:29;;;;;;;25.00;8.60;;;;;;;13.06;68.20;101949.03;5093814;28;20028;-70
2022/05/15 00:43:57;;;;;;;21.45;8.15;;;;;;;13.02;68.68;101943.88;5075776;28;20024;-70
2022/05/15 00:46:36;;;;;;;21.92;8.52;;;;;;;13.03;68.36;101942.97;5074218;28;20025;-70
2022/05/15 00:49:08;;;;;;;21.77;8.52;;;;;;;13.02;67.95;101942.13;5083918;28;20388;-70
2022/05/15 00:51:46;;;;;;;20.80;8.35;;;;;;;13.04;67.51;101937.69;5094381;28;20441;-70
2022/05/15 00:54:19;;;;;;;24.52;8.90;;;;;;;12.98;67.45;101939.53;5092080;28;20040;-70
2022/05/15 00:56:52;;;;;;;24.38;8.38;;;;;;;12.93;68.20;101931.78;5093510;28;20062;-70
2022/05/15 00:59:21;;;;;;;24.55;8.63;;;;;;;12.94;68.07;101932.66;5083067;28;20111;-70
2022/05/15 01:01:47;;;;;;;23.90;7.85;;;;;;;12.91;67.89;101930.94;5074122;28;20086;-70
2022/05/15 01:04:12;;;;;;;22.50;8.05;;;;;;;12.86;68.23;101938.00;5073194;28;20024;-70
2022/05/15 01:06:38;;;;;;;23.60;8.30;;;;;;;12.86;68.55;101936.25;5073862;28;20028;-70
2022/05/15 01:09:05;;;;;;;22.83;8.23;;;;;;;12.83;68.14;101940.66;5073826;28;20428;-70
2022/05/15 01:11:33;;;;;;;22.05;7.90;;;;;;;12.81;68.45;101945.91;5072227;28;20024;-70
2022/05/15 01:14:01;;;;;;;29.55;9.30;;;;;;;12.86;68.33;101946.72;5074035;28;20028;-71
2022/05/15 01:16:27;;;;;;;19.05;7.55;;;;;;;12.87;67.98;101940.59;5072979;28;20024;-70
2022/05/15 01:19:00;;;;;;;29.35;8.13;;;;;;;12.91;67.93;101936.16;5072989;28;20091;-70
2022/05/15 01:21:33;;;;;;;18.77;7.10;;;;;;;12.88;67.84;101942.34;5092796;28;20082;-70
2022/05/15 01:24:00;;;;;;;28.02;8.07;;;;;;;12.84;68.46;101935.41;5092683;28;20024;-70
2022/05/15 01:26:26;;;;;;;27.85;8.05;;;;;;;12.84;68.24;101935.41;5093808;28;20016;-70
2022/05/15 01:28:52;;;;;;;23.52;7.55;;;;;;;12.88;68.27;101939.72;5091126;28;20028;-70
2022/05/15 01:31:18;;;;;;;22.98;7.60;;;;;;;12.86;68.07;101944.09;5078429;28;20025;-70
2022/05/15 01:33:50;;;;;;;25.48;8.05;;;;;;;12.84;68.21;101945.88;5073248;28;20033;-69
2022/05/15 01:36:19;;;;;;;24.58;7.90;;;;;;;12.82;68.35;101947.66;5073395;28;20031;-70
2022/05/15 01:38:44;;;;;;;24.58;7.43;;;;;;;12.79;68.90;101949.47;5071975;28;20031;-70
2022/05/15 01:41:12;;;;;;;22.27;7.68;;;;;;;12.69;68.63;101948.72;5073310;28;20461;-70
2022/05/15 01:43:38;;;;;;;20.90;7.45;;;;;;;12.69;68.83;101946.13;5073156;28;20056;-70
2022/05/15 01:46:03;;;;;;;22.80;7.03;;;;;;;12.64;69.35;101942.69;5072787;28;20025;-70
2022/05/15 01:48:30;;;;;;;27.63;7.95;;;;;;;12.57;69.08;101941.06;5072516;28;20028;-70
2022/05/15 01:50:55;;;;;;;27.08;8.10;;;;;;;12.56;69.23;101947.19;5078985;28;20020;-70
2022/05/15 01:53:20;;;;;;;32.03;8.63;;;;;;;12.48;69.36;101941.19;5091393;28;20043;-70
2022/05/15 01:55:46;;;;;;;26.50;8.07;;;;;;;12.44;69.62;101948.19;5093311;28;20489;-70
2022/05/15 01:58:11;;;;;;;19.35;7.72;;;;;;;12.27;69.54;101931.88;5091460;28;20094;-70
2022/05/15 02:00:37;;;;;;;22.60;7.60;;;;;;;12.27;69.86;101937.97;5071760;28;20137;-70
2022/05/15 02:03:02;;;;;;;24.45;8.23;;;;;;;12.13;70.18;101926.81;5073036;28;20039;-70
2022/05/15 02:05:28;;;;;;;22.85;8.18;;;;;;;12.15;70.26;101938.13;5071329;28;20036;-70
2022/05/15 02:07:54;;;;;;;25.20;8.00;;;;;;;12.02;70.97;101931.31;5071832;28;20044;-70
2022/05/15 02:10:20;;;;;;;23.10;7.88;;;;;;;12.01;70.71;101934.81;5072129;28;20020;-70
2022/05/15 02:12:46;;;;;;;21.55;7.95;;;;;;;11.99;71.10;101937.44;5071898;28;20043;-70
2022/05/15 02:15:12;;;;;;;23.23;7.93;;;;;;;11.98;71.44;101932.25;5072677;28;20032;-70
2022/05/15 02:17:38;;;;;;;20.38;8.00;;;;;;;11.92;71.81;101931.41;5071665;28;20032;-70
2022/05/15 02:20:05;;;;;;;25.60;7.93;;;;;;;11.86;71.29;101926.25;5071220;28;20033;-70
2022/05/15 02:22:31;;;;;;;23.20;8.27;;;;;;;11.76;72.09;101924.59;5071846;28;20112;-70
2022/05/15 02:24:56;;;;;;;24.15;9.68;;;;;;;11.71;72.16;101929.03;5072524;28;20108;-70
2022/05/15 02:27:21;;;;;;;25.88;8.30;;;;;;;11.75;72.80;101930.72;5071876;28;20036;-70
2022/05/15 02:29:47;;;;;;;24.85;8.60;;;;;;;11.73;72.78;101925.50;5079485;28;20465;-70
2022/05/15 02:32:12;;;;;;;27.70;9.20;;;;;;;11.73;72.94;101935.94;5083298;28;20444;-70
2022/05/15 02:34:37;;;;;;;20.55;9.02;;;;;;;11.76;72.67;101932.44;5075044;28;20025;-70
2022/05/15 02:37:03;;;;;;;22.42;8.68;;;;;;;11.72;72.53;101928.13;5071819;28;20086;-70
2022/05/15 02:39:29;;;;;;;23.65;8.80;;;;;;;11.69;72.77;101922.94;5071743;28;20032;-70
2022/05/15 02:41:54;;;;;;;21.38;8.77;;;;;;;11.68;73.05;101916.00;5081400;28;20032;-70
2022/05/15 02:44:19;;;;;;;27.73;8.68;;;;;;;11.68;73.09;101927.31;5091488;28;20032;-70
2022/05/15 02:46:45;;;;;;;23.40;8.15;;;;;;;11.68;72.78;101923.84;5092213;28;20127;-70
2022/05/15 02:51:54;;;;;;;26.13;8.75;;;;;;;11.65;73.60;101918.66;5072192;28;20101;-70
2022/05/15 02:54:19;;;;;;;26.73;9.10;;;;;;;11.60;73.92;101921.28;5071503;28;20115;-70
2022/05/15 02:56:44;;;;;;;20.20;7.43;;;;;;;11.65;73.86;101931.72;5071134;28;20027;-70
2022/05/15 02:59:10;;;;;;;22.63;7.47;;;;;;;11.62;73.72;101921.28;5073277;28;20150;-70
2022/05/15 03:01:36;;;;;;;24.05;8.55;;;;;;;11.59;74.03;101905.66;5091296;28;20480;-70
2022/05/15 03:04:02;;;;;;;27.92;9.13;;;;;;;11.59;74.20;101916.09;5081532;28;20034;-70
2022/05/15 03:06:27;;;;;;;24.33;8.70;;;;;;;11.55;74.02;101911.78;5071876;28;20024;-70
2022/05/15 03:08:53;;;;;;;22.25;7.80;;;;;;;11.54;74.31;101899.59;5070861;28;20231;-70
2022/05/15 03:11:19;;;;;;;22.70;7.85;;;;;;;11.51;74.40;101912.69;5073377;28;20110;-70
2022/05/15 03:13:45;;;;;;;27.52;8.23;;;;;;;11.48;74.74;101906.63;5091636;28;20543;-70
2022/05/15 03:16:12;;;;;;;24.02;8.32;;;;;;;11.47;74.47;101904.88;5091039;28;20055;-70
2022/05/15 03:18:39;;;;;;;25.58;7.65;;;;;;;11.46;74.83;101907.53;5078330;28;20466;-70
2022/05/15 03:21:05;;;;;;;30.38;8.13;;;;;;;11.43;74.75;101904.94;5071512;28;20086;-70
2022/05/15 03:23:31;;;;;;;24.55;8.32;;;;;;;11.42;74.62;101905.81;5070471;28;20419;-70
2022/05/15 03:25:56;;;;;;;31.67;8.80;;;;;;;11.45;74.69;101911.03;5071361;28;20425;-70
2022/05/15 03:28:21;;;;;;;21.13;7.72;;;;;;;11.45;74.45;101909.28;5071583;28;20020;-70
2022/05/15 03:30:47;;;;;;;21.17;8.02;;;;;;;11.47;74.76;101907.50;5070366;28;20052;-70
2022/05/15 03:33:12;;;;;;;22.58;7.80;;;;;;;11.48;74.64;101906.63;5071133;28;20021;-70
2022/05/15 03:35:38;;;;;;;22.33;8.18;;;;;;;11.45;74.75;101911.03;5071350;28;20391;-70
2022/05/15 03:38:04;;;;;;;27.27;8.80;;;;;;;11.44;74.46;101904.03;5071195;28;20419;-70
2022/05/15 03:40:30;;;;;;;23.50;7.53;;;;;;;11.41;74.96;101904.97;5070850;28;20487;-70
2022/05/15 03:42:56;;;;;;;26.58;9.32;;;;;;;11.34;75.28;101902.41;5071288;28;20029;-70
2022/05/15 03:45:21;;;;;;;26.63;8.55;;;;;;;11.25;75.12;101906.00;5087948;28;20032;-70
2022/05/15 03:47:50;;;;;;;20.13;8.27;;;;;;;11.24;75.53;101901.63;5088654;28;20073;-70
2022/05/15 03:50:16;;;;;;;24.42;8.55;;;;;;;11.12;75.82;101896.53;5075137;28;20032;-70
2022/05/15 03:52:41;;;;;;;31.17;9.32;;;;;;;11.11;75.91;101907.84;5074556;28;20095;-70
2022/05/15 03:55:08;;;;;;;19.98;8.60;;;;;;;11.06;75.70;101901.81;5089946;28;20460;-70
2022/05/15 03:57:33;;;;;;;33.42;9.43;;;;;;;11.07;75.88;101904.41;5092721;28;20081;-70
2022/05/15 03:59:59;;;;;;;27.33;9.52;;;;;;;11.04;76.26;101903.56;5074389;28;20044;-70
2022/05/15 04:02:24;;;;;;;23.13;9.48;;;;;;;11.05;76.49;101902.66;5074965;28;20472;-70
2022/05/15 04:04:49;;;;;;;21.13;9.52;;;;;;;10.96;76.54;101901.88;5084156;28;20034;-70
2022/05/15 04:07:15;;;;;;;25.38;9.02;;;;;;;10.93;77.12;101895.84;5094653;28;20499;-70
2022/05/15 04:09:40;;;;;;;22.50;8.80;;;;;;;10.89;76.92;101907.16;5075584;28;20033;-70
2022/05/15 04:12:11;;;;;;;19.35;8.35;;;;;;;10.82;77.27;101908.94;5075171;28;20025;-70
2022/05/15 04:14:36;;;;;;;22.38;9.05;;;;;;;10.77;77.55;101910.72;5086870;28;20086;-70
2022/05/15 04:17:02;;;;;;;24.95;8.98;;;;;;;10.81;77.97;101919.41;5090920;28;20027;-70
2022/05/15 04:19:27;;;;;;;25.13;8.98;;;;;;;10.81;77.96;101919.41;5094095;28;20020;-70
2022/05/15 04:21:53;;;;;;;25.25;9.10;;;;;;;10.87;77.98;101924.56;5095091;28;20028;-70
2022/05/15 04:24:19;;;;;;;28.17;8.85;;;;;;;10.94;77.73;101916.69;5091955;28;20051;-70
2022/05/15 04:26:46;;;;;;;21.33;9.45;;;;;;;10.97;77.33;101916.66;5073759;28;20505;-69
2022/05/15 04:29:12;;;;;;;24.95;9.40;;;;;;;11.04;77.42;101914.00;5088722;28;20077;-70
2022/05/15 04:31:38;;;;;;;23.90;9.15;;;;;;;11.12;76.81;101914.81;5094626;28;20100;-70
2022/05/15 04:34:04;;;;;;;29.48;9.07;;;;;;;11.18;77.01;101914.72;5094325;28;20463;-69
2022/05/15 04:36:29;;;;;;;22.95;9.02;;;;;;;11.21;76.85;101909.50;5077709;28;20032;-70
2022/05/15 04:38:56;;;;;;;24.95;8.82;;;;;;;11.23;77.07;101911.22;5094739;28;20023;-70
2022/05/15 04:41:22;;;;;;;24.02;8.45;;;;;;;11.32;76.77;101912.88;5076048;28;20048;-70
2022/05/15 04:43:47;;;;;;;19.05;8.07;;;;;;;11.39;76.69;101904.09;5074407;28;20064;-70
2022/05/15 04:46:12;;;;;;;22.20;8.07;;;;;;;11.42;76.25;101908.44;5079500;28;20028;-70
2022/05/15 04:48:38;;;;;;;29.23;9.10;;;;;;;11.45;76.31;101911.03;5084469;28;20035;-70
2022/05/15 04:51:04;;;;;;;24.80;8.18;;;;;;;11.53;76.32;101906.56;5094717;28;20032;-70
2022/05/15 04:53:30;;;;;;;26.35;8.30;;;;;;;11.60;75.78;101899.53;5094351;28;20379;-70
2022/05/15 04:55:56;;;;;;;20.15;7.95;;;;;;;11.68;75.29;101898.59;5079273;28;20032;-70
2022/05/15 04:58:21;;;;;;;31.70;8.65;;;;;;;11.71;75.34;101900.28;5072613;28;20020;-70
2022/05/15 05:00:46;;;;;;;23.98;7.35;;;;;;;11.81;75.04;101899.31;5074507;28;20519;-70
2022/05/15 05:03:12;;;;;;;20.83;7.70;;;;;;;11.89;74.98;101904.47;5073285;28;20020;-70
2022/05/15 05:05:37;;;;;;;27.65;7.97;;;;;;;11.95;74.84;101913.09;5073149;28;20020;-70
2022/05/15 05:08:05;;;;;;;27.98;8.88;;;;;;;12.03;74.58;101913.00;5073776;28;20017;-69
2022/05/15 05:10:30;;;;;;;27.85;8.15;;;;;;;12.10;74.29;101919.03;5079520;28;20040;-70
2022/05/15 05:12:55;;;;;;;23.58;8.60;;;;;;;12.13;74.25;101906.78;5093310;28;20028;-70
2022/05/15 05:15:21;;;;;;;24.17;8.93;;;;;;;12.19;74.26;101914.53;5086985;28;20075;-70
2022/05/15 05:17:46;;;;;;;29.27;8.20;;;;;;;12.27;73.75;101917.06;5082938;28;20392;-70
2022/05/15 05:20:13;;;;;;;19.13;8.35;;;;;;;12.31;73.59;101923.97;5094043;28;20032;-70
2022/05/15 05:22:39;;;;;;;23.73;9.30;;;;;;;12.34;73.25;101912.59;5092984;28;20535;-70
2022/05/15 05:25:05;;;;;;;24.27;8.73;;;;;;;12.41;72.91;101922.09;5092063;28;20024;-70
2022/05/15 05:27:31;;;;;;;30.63;8.63;;;;;;;12.49;74.37;101912.41;5093384;28;20020;-70
2022/05/15 05:29:56;;;;;;;28.90;9.00;;;;;;;12.56;73.48;101910.56;5093096;28;20375;-70
2022/05/15 05:32:21;;;;;;;24.30;8.38;;;;;;;12.60;73.10;101907.00;5093748;28;20377;-70
2022/05/15 05:34:47;;;;;;;21.45;8.52;;;;;;;12.69;72.48;101906.88;5077613;28;20032;-70
2022/05/15 05:37:12;;;;;;;27.65;8.70;;;;;;;12.75;72.49;101909.41;5072454;28;20029;-70
2022/05/15 05:39:37;;;;;;;24.17;9.15;;;;;;;12.80;72.32;101904.94;5072929;28;20035;-70
2022/05/15 05:42:03;;;;;;;21.00;8.77;;;;;;;12.89;71.98;101909.19;5073771;28;20119;-70
2022/05/15 05:44:28;;;;;;;24.05;9.32;;;;;;;12.97;72.20;101903.81;5091507;28;20937;-70
2022/05/15 05:46:54;;;;;;;25.73;8.90;;;;;;;13.06;71.91;101909.75;5074992;28;20025;-70
2022/05/15 05:49:19;;;;;;;26.60;10.30;;;;;;;13.09;71.32;101906.22;5073201;28;20107;-70
2022/05/15 05:51:45;;;;;;;18.63;9.07;;;;;;;13.17;71.60;101906.09;5072166;28;20071;-70
2022/05/15 05:54:11;;;;;;;28.08;10.20;;;;;;;13.22;71.24;101915.59;5072404;28;20472;-70
2022/05/15 05:56:36;;;;;;;19.98;9.10;;;;;;;13.31;70.90;101912.84;5072581;28;20096;-70
2022/05/15 05:59:02;;;;;;;23.35;9.70;;;;;;;13.41;70.33;101910.06;5072120;28;20440;-70
2022/05/15 06:01:27;;;;;;;20.67;9.38;;;;;;;13.53;70.92;101912.44;5082314;28;20052;-70
2022/05/15 06:06:36;;;;;;;29.42;10.30;;;;;;;13.70;70.40;101907.78;5077949;28;20115;-70
2022/05/15 06:09:02;;;;;;;24.88;10.43;;;;;;;13.77;70.17;101914.63;5072693;28;20123;-70
2022/05/15 06:11:27;;;;;;;24.25;9.10;;;;;;;13.85;70.24;101911.81;5072430;28;20468;-70
2022/05/15 06:13:52;;;;;;;25.70;9.60;;;;;;;13.94;69.33;101911.66;5071229;28;20075;-70
2022/05/15 06:16:18;;;;;;;21.23;10.00;;;;;;;14.00;69.21;101908.03;5072444;28;20059;-70
2022/05/15 06:18:44;;;;;;;20.88;10.65;;;;;;;14.10;69.34;101906.09;5072225;28;20043;-70
2022/05/15 06:21:10;;;;;;;24.13;10.77;;;;;;;14.15;68.50;101907.69;5071562;28;20491;-70
2022/05/15 06:23:35;;;;;;;24.45;10.52;;;;;;;14.24;68.49;101897.00;5072249;28;20028;-70
2022/05/15 06:26:00;;;;;;;23.10;10.07;;;;;;;14.33;68.49;101900.34;5071693;28;20032;-70
2022/05/15 06:28:25;;;;;;;24.75;10.55;;;;;;;14.34;68.24;101894.19;5071820;28;20048;-70
2022/05/15 06:30:51;;;;;;;21.02;10.52;;;;;;;14.44;69.00;101901.81;5074759;28;20120;-70
2022/05/15 06:33:16;;;;;;;26.80;11.70;;;;;;;14.51;68.35;101906.06;5073631;28;20028;-70
2022/05/15 06:35:41;;;;;;;19.48;10.10;;;;;;;14.58;68.41;101900.66;5072559;28;20369;-70
2022/05/15 06:38:07;;;;;;;26.00;10.85;;;;;;;14.65;67.25;101900.50;5085782;28;20035;-70
2022/05/15 06:40:32;;;;;;;18.88;10.50;;;;;;;14.77;67.69;101903.72;5080879;28;20037;-70
2022/05/15 06:42:58;;;;;;;24.33;10.68;;;;;;;14.88;67.23;101906.97;5072225;28;20099;-70
2022/05/15 06:45:26;;;;;;;21.52;11.52;;;;;;;14.92;66.46;101888.47;5072142;28;20029;-71
2022/05/15 06:47:51;;;;;;;23.85;11.65;;;;;;;15.03;66.37;101903.94;5070668;28;20037;-71
2022/05/15 06:50:16;;;;;;;23.63;11.52;;;;;;;15.14;66.79;101909.81;5082895;28;20031;-71
2022/05/15 06:52:42;;;;;;;27.35;11.48;;;;;;;15.21;65.86;101908.75;5071960;28;20024;-71
2022/05/15 06:55:20;;;;;;;23.63;12.13;;;;;;;15.31;65.96;101903.25;5076281;28;20044;-70
2022/05/15 06:57:47;;;;;;;22.40;11.15;;;;;;;15.35;65.92;101903.13;5071663;28;20035;-70
2022/05/15 07:00:19;;;;;;;25.83;12.10;;;;;;;15.41;65.97;101896.84;5071067;28;20097;-70
2022/05/15 07:02:46;;;;;;;21.83;11.07;;;;;;;15.45;66.16;101898.47;5070547;28;20039;-70
2022/05/15 07:05:20;;;;;;;20.77;10.55;;;;;;;15.53;65.77;101901.78;5071655;28;20508;-70
2022/05/15 07:07:46;;;;;;;20.25;11.73;;;;;;;15.62;66.06;101901.50;5071539;28;20083;-71
2022/05/15 07:10:12;;;;;;;21.65;11.48;;;;;;;15.72;65.34;101901.28;5070978;28;20123;-71
2022/05/15 07:12:37;;;;;;;22.60;11.18;;;;;;;15.76;63.99;101906.44;5074187;28;20111;-70
2022/05/15 07:15:03;;;;;;;22.83;11.48;;;;;;;15.92;64.07;101909.47;5077966;28;20020;-70
2022/05/15 07:17:29;;;;;;;22.98;10.57;;;;;;;16.00;65.40;101911.91;5071225;28;20032;-70
2022/05/15 07:19:55;;;;;;;21.83;10.93;;;;;;;16.13;64.14;101914.13;5071050;28;20543;-70
2022/05/15 07:22:20;;;;;;;19.83;11.60;;;;;;;16.26;62.03;101913.75;5082279;28;20030;-70
2022/05/15 07:24:49;;;;;;;21.38;11.60;;;;;;;16.36;61.46;101909.94;5089718;28;20032;-70
2022/05/15 07:27:15;;;;;;;21.13;10.43;;;;;;;16.51;61.54;101911.22;5092265;28;20500;-69
2022/05/15 07:29:41;;;;;;;17.20;10.80;;;;;;;16.61;61.61;101905.63;5090789;28;20027;-70
2022/05/15 07:32:07;;;;;;;17.58;11.07;;;;;;;16.76;60.94;101903.44;5087987;28;20031;-70
2022/05/15 07:34:33;;;;;;;22.20;11.25;;;;;;;16.92;60.69;101898.53;5094952;28;20089;-70
2022/05/15 07:36:59;;;;;;;17.23;10.90;;;;;;;17.05;60.04;101905.13;5090461;28;20021;-70
2022/05/15 07:39:24;;;;;;;19.70;11.65;;;;;;;17.17;59.38;101903.84;5091784;28;20032;-69
2022/05/15 07:41:51;;;;;;;22.60;11.90;;;;;;;17.24;59.28;101905.34;5096068;28;20059;-70
2022/05/15 07:44:17;;;;;;;19.70;11.32;;;;;;;17.39;59.67;101904.81;5077973;28;20048;-70
2022/05/15 07:46:42;;;;;;;19.20;10.77;;;;;;;17.53;58.23;101899.91;5078126;28;20078;-70
2022/05/15 07:49:08;;;;;;;24.75;11.63;;;;;;;17.65;58.34;101898.59;5078134;28;20025;-70
2022/05/15 07:51:34;;;;;;;24.02;10.93;;;;;;;17.78;58.27;101901.69;5087753;28;20111;-70
2022/05/15 07:54:00;;;;;;;21.55;10.90;;;;;;;17.91;57.83;101902.09;5097264;28;20040;-69
2022/05/15 07:56:25;;;;;;;23.33;11.63;;;;;;;17.99;56.60;101898.25;5086305;28;20511;-70
2022/05/15 07:58:51;;;;;;;21.45;11.63;;;;;;;18.06;56.49;101890.97;5080691;28;20037;-70
2022/05/15 08:01:16;;;;;;;20.58;11.10;;;;;;;18.13;56.83;101899.50;5080987;28;20540;-70
2022/05/15 08:03:44;;;;;;;20.08;10.60;;;;;;;18.23;56.25;101898.25;5092668;28;20039;-70
2022/05/15 08:08:59;;;;;;;20.63;10.88;;;;;;;18.51;55.79;101895.38;5091756;28;20042;-70
2022/05/15 08:11:28;;;;;;;21.63;10.77;;;;;;;18.58;55.38;101893.34;5084569;28;20028;-70
2022/05/15 08:13:54;;;;;;;23.05;10.95;;;;;;;18.67;54.28;101891.22;5078810;28;20036;-70
2022/05/15 08:16:19;;;;;;;19.20;10.77;;;;;;;18.78;53.69;101885.50;5083001;28;20029;-71
2022/05/15 08:24:14;;;;;;;23.40;10.02;;;;;;;19.15;52.74;101868.94;5098021;28;20074;-70
2022/05/15 08:26:39;;;;;;;19.67;10.18;;;;;;;19.30;52.40;101863.94;5091456;28;20021;-70
2022/05/15 08:29:05;;;;;;;18.00;10.27;;;;;;;19.35;52.75;101862.78;5098053;28;20448;-70
2022/05/15 08:31:30;;;;;;;20.33;10.10;;;;;;;19.45;53.40;101865.03;5096796;28;20071;-70
2022/05/15 08:33:56;;;;;;;16.73;10.20;;;;;;;19.58;50.96;101861.75;5089431;28;20035;-70
2022/05/15 08:36:21;;;;;;;12.57;8.63;;;;;;;19.70;49.92;101859.53;5082228;28;20056;-71
2022/05/15 08:38:46;;;;;;;18.42;9.57;;;;;;;19.82;50.58;101849.25;5086724;28;20085;-71
2022/05/15 08:41:24;;;;;;;17.33;9.38;;;;;;;19.94;49.76;101847.81;5075475;28;20024;-70
2022/05/15 08:44:08;;;;;;;17.70;9.00;;;;;;;20.07;50.21;101856.03;5087225;28;20028;-70
2022/05/15 08:47:19;;;;;;;21.38;9.73;;;;;;;20.17;49.53;101846.72;5079454;28;20071;-71
2022/05/15 08:49:50;;;;;;;18.95;9.23;;;;;;;20.28;48.18;101838.28;5075721;28;20048;-70
2022/05/15 08:52:46;;;;;;;15.60;9.63;;;;;;;20.35;48.46;101834.41;5078395;28;20029;-70
2022/05/15 08:55:19;;;;;;;16.30;8.70;;;;;;;20.43;47.65;101834.88;5066658;28;20518;-70
2022/05/15 08:57:55;;;;;;;14.55;8.90;;;;;;;20.51;46.10;101826.59;5075410;28;20028;-70
2022/05/15 09:00:33;;;;;;;17.77;8.48;;;;;;;20.72;46.00;101836.09;5073513;28;20071;-70
2022/05/15 09:03:08;;;;;;;14.57;8.75;;;;;;;20.80;45.04;101828.66;5073772;28;20032;-70
2022/05/15 09:05:33;;;;;;;17.67;9.32;;;;;;;20.87;42.75;101839.78;5077623;28;20040;-70
2022/05/15 09:08:20;;;;;;;16.08;9.27;;;;;;;20.90;42.65;101836.13;5076887;28;20114;-70
2022/05/15 09:11:07;;;;;;;16.58;7.70;;;;;;;21.07;44.44;101825.50;5085404;28;20440;-70
2022/05/15 09:13:46;;;;;;;15.63;7.75;;;;;;;21.31;41.39;101831.31;5091760;28;20020;-70
2022/05/15 09:16:24;;;;;;;13.23;6.43;;;;;;;21.51;42.08;101836.44;5090567;28;20118;-71
2022/05/15 09:18:49;;;;;;;13.25;7.38;;;;;;;21.59;41.81;101832.53;5087215;28;20110;-70
2022/05/15 09:21:17;;;;;;;15.35;6.57;;;;;;;21.67;41.95;101835.63;5073855;28;20052;-70
2022/05/15 09:23:48;;;;;;;14.95;6.53;;;;;;;21.73;39.95;101830.84;5078919;28;20459;-70
2022/05/15 09:26:17;;;;;;;16.75;6.47;;;;;;;21.88;39.84;101833.59;5084762;28;20027;-70
2022/05/15 09:28:49;;;;;;;15.90;5.72;;;;;;;21.91;39.39;101833.44;5092095;28;20039;-70
2022/05/15 09:31:42;;;;;;;14.50;6.22;;;;;;;21.98;39.17;101830.34;5093714;28;20028;-70
2022/05/15 09:34:19;;;;;;;11.15;5.47;;;;;;;22.04;38.09;101825.63;5092124;28;20028;-70
2022/05/15 09:36:46;;;;;;;10.90;5.53;;;;;;;22.05;37.49;101830.84;5080782;28;20058;-71
2022/05/15 09:39:25;;;;;;;11.35;5.13;;;;;;;22.08;37.98;101828.03;5088520;28;20111;-70
2022/05/15 09:44:49;;;;;;;10.43;5.93;;;;;;;22.25;37.28;101812.97;5053215;28;20036;-70
2022/05/15 09:47:22;;;;;;;12.48;4.95;;;;;;;22.35;38.07;101815.00;5073278;28;20029;-70
2022/05/15 09:49:48;;;;;;;16.23;5.50;;;;;;;22.43;36.21;101811.88;5075552;28;20024;-70
2022/05/15 09:52:54;;;;;;;10.40;4.78;;;;;;;22.57;37.22;101808.47;5086443;28;20026;-70
2022/05/15 09:55:23;;;;;;;12.30;4.75;;;;;;;22.74;37.07;101800.34;5048014;28;20044;-70
2022/05/15 09:58:00;;;;;;;11.30;5.80;;;;;;;22.86;36.00;101796.09;5081505;28;20104;-70
2022/05/15 10:00:29;;;;;;;10.18;4.80;;;;;;;22.98;37.27;101795.38;5092823;28;20453;-71
2022/05/15 10:03:03;;;;;;;8.20;4.38;;;;;;;23.08;33.69;101801.84;5082019;28;20032;-71
2022/05/15 10:05:35;;;;;;;10.70;4.68;;;;;;;23.14;34.76;101798.81;5073386;28;20683;-71
2022/05/15 10:08:05;;;;;;;10.50;4.97;;;;;;;23.32;34.42;101807.47;5072609;28;20028;-71
2022/05/15 10:10:37;;;;;;;8.20;4.68;;;;;;;23.42;34.12;101805.09;5071446;28;20032;-71
2022/05/15 10:13:23;;;;;;;11.27;5.43;;;;;;;23.51;33.93;101793.00;5079276;28;20023;-70
2022/05/15 10:15:50;;;;;;;11.40;4.55;;;;;;;23.57;33.51;101798.78;5084010;28;20077;-71
2022/05/15 10:18:50;;;;;;;8.25;4.57;;;;;;;23.65;34.45;101786.81;5083475;28;20030;-71
2022/05/15 10:21:15;;;;;;;11.15;4.68;;;;;;;23.73;32.69;101792.53;5080190;28;20035;-70
2022/05/15 10:23:53;;;;;;;9.45;4.40;;;;;;;23.86;33.39;101797.94;5083880;28;20028;-70
2022/05/15 10:26:27;;;;;;;7.80;4.75;;;;;;;23.89;33.37;101797.72;5078136;28;20032;-70
2022/05/15 10:29:09;;;;;;;12.95;4.85;;;;;;;23.96;33.32;101789.25;5072249;28;20036;-70
2022/05/15 10:32:02;;;;;;;11.10;4.57;;;;;;;24.12;32.95;101788.25;5072470;28;20040;-71
2022/05/15 10:34:29;;;;;;;8.23;4.70;;;;;;;24.15;32.23;101777.38;5072312;28;20020;-70
2022/05/15 10:37:06;;;;;;;11.30;4.68;;;;;;;24.24;33.10;101776.78;5078641;28;20033;-71
2022/05/15 10:39:37;;;;;;;7.88;4.60;;;;;;;24.47;32.98;101776.13;5070652;28;20033;-71
2022/05/15 10:42:07;;;;;;;11.45;4.63;;;;;;;24.65;31.64;101770.50;5073436;28;20031;-71
2022/05/15 10:45:25;;;;;;;9.60;4.65;;;;;;;24.81;33.16;101757.81;5080664;28;20071;-71
2022/05/15 10:48:09;;;;;;;14.25;5.03;;;;;;;24.68;31.61;101749.81;5003461;28;20037;-71
2022/05/15 10:50:59;;;;;;;11.18;4.68;;;;;;;24.58;31.71;101753.22;5073919;28;20131;-71
2022/05/15 11:00:06;;;;;;;11.68;5.20;;;;;;;24.98;31.56;101756.66;5008265;28;20046;-71
2022/05/15 11:02:57;;;;;;;9.77;4.32;;;;;;;25.27;32.83;101749.28;5067222;28;20046;-70
2022/05/15 11:05:35;;;;;;;9.02;4.00;;;;;;;25.56;31.97;101757.88;5070769;28;20025;-70
2022/05/15 11:08:39;;;;;;;9.25;4.00;;;;;;;25.77;31.08;101757.28;5071512;28;20028;-70
2022/05/15 11:11:16;;;;;;;;;;;;;;;25.86;31.30;101760.16;5002229;28;20173;-70
2022/05/15 11:13:56;;;;;;;10.00;3.75;;;;;;;25.98;30.51;101752.22;5007345;28;19996;-70
2022/05/15 11:16:32;;;;;;;12.57;5.18;;;;;;;26.01;30.85;101749.31;5041389;28;20043;-70
2022/05/15 11:19:11;;;;;;;9.63;4.97;;;;;;;25.98;30.41;101742.38;5071994;28;20035;-70
2022/05/15 11:22:14;;;;;;;11.82;4.40;;;;;;;26.19;30.20;101739.91;5083710;28;20077;-70
2022/05/15 11:24:56;;;;;;;10.93;4.80;;;;;;;26.30;29.85;101736.44;5081886;28;20119;-70
2022/05/15 11:27:30;;;;;;;9.47;3.80;;;;;;;26.49;29.17;101735.94;5080357;28;20538;-70
2022/05/15 11:30:00;;;;;;;11.00;3.78;;;;;;;26.50;27.79;101717.09;5070602;28;20039;-70
2022/05/15 11:32:27;;;;;;;12.65;4.63;;;;;;;26.67;28.65;101721.13;5089456;28;20039;-70
2022/05/15 11:35:05;;;;;;;13.38;4.18;;;;;;;26.78;28.80;101714.94;5090850;28;20043;-70
2022/05/15 11:37:39;;;;;;;10.50;3.90;;;;;;;27.02;28.50;101712.16;5086177;28;20032;-70
2022/05/15 11:40:34;;;;;;;10.85;4.03;;;;;;;27.27;28.36;101711.06;5088193;28;20066;-70
2022/05/15 11:43:19;;;;;;;12.90;4.20;;;;;;;27.58;24.88;101701.41;5074933;28;20032;-70
2022/05/15 11:45:59;;;;;;;12.00;4.25;;;;;;;28.33;26.25;101691.63;5071098;28;20040;-70
2022/05/15 11:48:29;;;;;;;23.00;4.68;;;;;;;29.23;24.06;101682.91;5081103;28;20031;-79
2022/05/15 11:50:57;;;;;;;7.97;3.63;;;;;;;30.35;21.83;101686.13;5083248;28;20476;-78